createdAt,value
2023-02-03T00:00:53.078Z,7.82
2023-02-03T00:03:55.555Z,4.37
2023-02-03T00:06:57.719Z,4.62
2023-02-03T00:10:00.273Z,4.43
2023-02-03T00:13:02.593Z,3.85
2023-02-03T00:16:06.645Z,5.83
2023-02-03T00:19:08.828Z,5.87
2023-02-03T00:22:11.262Z,4.35
2023-02-03T00:25:13.387Z,4.40
2023-02-03T00:28:15.859Z,4.97
2023-02-03T00:31:23.821Z,4.57
2023-02-03T00:34:30.408Z,4.53
2023-02-03T00:37:32.526Z,5.00
2023-02-03T00:40:36.026Z,4.93
2023-02-03T00:43:38.143Z,2.83
2023-02-03T00:46:40.815Z,4.20
2023-02-03T00:49:43.020Z,3.60
2023-02-03T00:52:45.476Z,4.97
2023-02-03T00:55:47.705Z,5.03
2023-02-03T00:58:50.205Z,4.18
2023-02-03T01:01:52.444Z,4.93
2023-02-03T01:04:54.974Z,4.43
2023-02-03T01:07:57.104Z,9.00
2023-02-03T01:10:59.536Z,6.68
2023-02-03T01:14:01.876Z,5.20
2023-02-03T01:17:05.070Z,3.03
2023-02-03T01:20:07.685Z,4.55
2023-02-03T01:23:10.292Z,4.10
2023-02-03T01:26:15.973Z,5.28
2023-02-03T01:29:18.706Z,4.07
2023-02-03T01:32:20.895Z,4.90
2023-02-03T01:35:23.410Z,5.57
2023-02-03T01:38:25.569Z,4.85
2023-02-03T01:41:35.491Z,6.40
2023-02-03T01:44:45.002Z,5.90
2023-02-03T01:47:52.705Z,3.78
2023-02-03T01:50:54.916Z,4.65
2023-02-03T01:53:58.512Z,5.65
2023-02-03T01:57:05.781Z,5.47
2023-02-03T02:00:09.689Z,6.72
2023-02-03T02:03:16.635Z,3.80
2023-02-03T02:06:19.128Z,6.82
2023-02-03T02:09:21.645Z,3.65
2023-02-03T02:12:24.089Z,3.95
2023-02-03T02:15:56.881Z,6.65
2023-02-03T02:19:05.157Z,6.15
2023-02-03T02:22:15.963Z,6.07
2023-02-03T02:25:38.928Z,4.80
2023-02-03T02:28:56.103Z,3.12
2023-02-03T02:32:10.958Z,3.85
2023-02-03T02:35:27.047Z,4.10
2023-02-03T02:39:01.949Z,5.30
2023-02-03T02:42:07.142Z,5.43
2023-02-03T02:45:20.415Z,4.68
2023-02-03T02:48:28.642Z,6.03
2023-02-03T02:51:33.079Z,4.30
2023-02-03T02:54:40.919Z,5.55
2023-02-03T02:57:46.864Z,4.28
2023-02-03T03:00:49.421Z,4.47
2023-02-03T03:03:52.141Z,4.53
2023-02-03T03:07:01.580Z,5.18
2023-02-03T03:10:10.990Z,3.72
2023-02-03T03:13:22.596Z,5.68
2023-02-03T03:16:27.472Z,5.50
2023-02-03T03:19:41.507Z,4.95
2023-02-03T03:22:49.012Z,6.78
2023-02-03T03:26:02.311Z,4.43
2023-02-03T03:29:12.375Z,5.00
2023-02-03T03:32:15.108Z,3.75
2023-02-03T03:35:17.840Z,4.30
2023-02-03T03:38:42.572Z,4.47
2023-02-03T03:42:16.116Z,4.10
2023-02-03T03:45:38.926Z,3.70
2023-02-03T03:49:01.576Z,5.85
2023-02-03T03:52:09.513Z,5.87
2023-02-03T03:55:14.667Z,3.78
2023-02-03T03:58:26.423Z,6.15
2023-02-03T04:01:30.435Z,5.25
2023-02-03T04:04:35.578Z,4.97
2023-02-03T04:07:46.014Z,6.32
2023-02-03T04:10:48.452Z,3.67
2023-02-03T04:13:50.591Z,4.57
2023-02-03T04:16:53.174Z,4.75
2023-02-03T04:19:55.306Z,2.70
2023-02-03T04:22:58.455Z,5.00
2023-02-03T04:26:01.223Z,6.70
2023-02-03T04:29:03.802Z,4.25
2023-02-03T04:32:05.973Z,5.25
2023-02-03T04:35:08.648Z,3.42
2023-02-03T04:38:10.776Z,9.30
2023-02-03T04:41:13.245Z,3.95
2023-02-03T04:44:15.398Z,4.75
2023-02-03T04:47:19.098Z,6.15
2023-02-03T04:50:21.418Z,3.85
2023-02-03T04:53:23.844Z,1.80
2023-02-03T04:56:26.023Z,3.97
2023-02-03T04:59:28.473Z,2.62
2023-02-03T05:02:30.628Z,2.95
2023-02-03T05:05:33.117Z,3.53
2023-02-03T05:08:35.268Z,4.60
2023-02-03T05:11:37.932Z,3.90
2023-02-03T05:14:40.101Z,3.78
2023-02-03T05:17:42.607Z,2.40
2023-02-03T05:20:44.727Z,4.53
2023-02-03T05:23:47.379Z,2.50
2023-02-03T05:26:49.552Z,3.87
2023-02-03T05:29:51.948Z,4.80
2023-02-03T05:32:54.111Z,5.03
2023-02-03T05:35:56.757Z,3.72
2023-02-03T05:38:58.989Z,5.45
2023-02-03T05:42:03.248Z,2.70
2023-02-03T05:45:05.767Z,4.60
2023-02-03T05:48:08.583Z,4.97
2023-02-03T05:51:10.778Z,3.57
2023-02-03T05:54:13.421Z,3.47
2023-02-03T05:57:15.531Z,3.37
2023-02-03T06:00:18.375Z,4.70
2023-02-03T06:03:20.879Z,4.78
2023-02-03T06:06:23.344Z,6.57
2023-02-03T06:09:25.953Z,2.35
2023-02-03T06:12:29.361Z,4.10
2023-02-03T06:15:31.984Z,3.30
2023-02-03T06:18:34.191Z,4.35
2023-02-03T06:21:36.700Z,2.90
2023-02-03T06:24:38.821Z,5.72
2023-02-03T06:27:41.542Z,5.03
2023-02-03T06:30:43.938Z,3.78
2023-02-03T06:33:46.940Z,3.80
2023-02-03T06:36:49.196Z,6.93
2023-02-03T06:39:51.727Z,4.67
2023-02-03T06:42:53.877Z,3.03
2023-02-03T06:45:56.375Z,3.53
2023-02-03T06:48:58.629Z,4.22
2023-02-03T06:52:01.215Z,3.75
2023-02-03T06:55:04.690Z,4.32
2023-02-03T06:58:07.181Z,4.50
2023-02-03T07:01:09.394Z,7.18
2023-02-03T07:04:12.352Z,4.25
2023-02-03T07:07:14.768Z,5.35
2023-02-03T07:10:17.389Z,4.87
2023-02-03T07:13:19.521Z,4.20
2023-02-03T07:16:22.113Z,6.22
2023-02-03T07:19:24.239Z,4.10
2023-02-03T07:22:26.775Z,4.00
2023-02-03T07:25:29.148Z,4.80
2023-02-03T07:28:32.723Z,5.83
2023-02-03T07:31:35.837Z,8.00
2023-02-03T07:34:38.863Z,4.28
2023-02-03T07:37:42.495Z,5.50
2023-02-03T07:40:44.931Z,6.57
2023-02-03T07:43:47.263Z,6.60
2023-02-03T07:46:49.817Z,5.53
2023-02-03T07:49:52.405Z,3.53
2023-02-03T07:52:55.671Z,3.90
2023-02-03T07:56:02.638Z,4.28
2023-02-03T07:59:05.290Z,4.68
2023-02-03T08:02:11.230Z,4.75
2023-02-03T08:05:14.959Z,4.43
2023-02-03T08:08:17.166Z,5.45
2023-02-03T08:11:19.685Z,6.35
2023-02-03T08:14:21.802Z,6.30
2023-02-03T08:17:25.627Z,4.65
2023-02-03T08:23:31.349Z,4.72
2023-02-03T08:26:33.494Z,5.53
2023-02-03T08:29:35.915Z,5.78
2023-02-03T08:32:38.166Z,6.90
2023-02-03T08:35:40.965Z,4.95
2023-02-03T08:38:44.327Z,5.90
2023-02-03T08:44:49.273Z,7.53
2023-02-03T08:47:51.773Z,6.65
2023-02-03T08:50:54.136Z,5.68
2023-02-03T08:53:56.675Z,4.70
2023-02-03T08:56:59.640Z,5.53
2023-02-03T09:00:02.406Z,11.20
2023-02-03T09:03:04.727Z,10.30
2023-02-03T09:06:09.249Z,12.63
2023-02-03T09:09:11.445Z,9.18
2023-02-03T09:12:14.485Z,7.50
2023-02-03T09:15:16.859Z,9.57
2023-02-03T09:18:19.645Z,10.73
2023-02-03T09:21:36.274Z,7.03
2023-02-03T09:24:44.365Z,8.75
2023-02-03T09:27:46.616Z,9.35
2023-02-03T09:30:49.223Z,10.40
2023-02-03T09:33:51.451Z,8.75
2023-02-03T09:36:53.848Z,12.15
2023-02-03T09:39:58.329Z,9.23
2023-02-03T09:43:12.708Z,8.95
2023-02-03T09:46:25.445Z,7.20
2023-02-03T09:49:38.905Z,7.55
2023-02-03T09:52:42.291Z,12.82
2023-02-03T09:55:47.346Z,10.45
2023-02-03T09:58:49.579Z,9.57
2023-02-03T10:02:20.537Z,10.50
2023-02-03T10:05:31.114Z,13.25
2023-02-03T10:08:59.579Z,11.40
2023-02-03T10:12:10.873Z,9.98
2023-02-03T10:15:31.193Z,9.02
2023-02-03T10:18:46.102Z,8.48
2023-02-03T10:21:58.493Z,11.20
2023-02-03T10:25:07.297Z,11.15
2023-02-03T10:28:16.970Z,9.77
2023-02-03T10:31:23.212Z,11.45
2023-02-03T10:34:26.256Z,11.70
2023-02-03T10:37:38.770Z,12.00
2023-02-03T10:40:40.952Z,12.80
2023-02-03T10:43:51.703Z,12.70
2023-02-03T10:46:54.060Z,13.57
2023-02-03T10:49:58.749Z,12.48
2023-02-03T10:53:19.630Z,11.57
2023-02-03T10:56:29.611Z,12.55
2023-02-03T10:59:35.606Z,12.60
2023-02-03T11:02:38.258Z,13.52
2023-02-03T11:05:43.114Z,13.62
2023-02-03T11:08:50.635Z,15.55
2023-02-03T11:12:13.384Z,14.48
2023-02-03T11:15:15.806Z,14.77
2023-02-03T11:18:41.850Z,13.15
2023-02-03T11:21:48.189Z,14.35
2023-02-03T11:24:50.420Z,15.30
2023-02-03T11:27:55.835Z,15.13
2023-02-03T11:30:59.028Z,11.23
2023-02-03T11:34:05.368Z,15.48
2023-02-03T11:37:37.189Z,11.95
2023-02-03T11:40:41.396Z,15.65
2023-02-03T11:43:44.311Z,11.40
2023-02-03T11:46:53.915Z,11.05
2023-02-03T11:50:07.751Z,9.95
2023-02-03T11:53:27.510Z,9.10
2023-02-03T11:56:54.697Z,7.95
2023-02-03T12:00:13.111Z,9.20
2023-02-03T12:03:30.854Z,10.18
2023-02-03T12:06:41.576Z,8.85
2023-02-03T12:10:05.839Z,8.52
2023-02-03T12:16:29.499Z,9.40
2023-02-03T12:19:50.726Z,11.65
2023-02-03T12:23:12.325Z,7.55
2023-02-03T12:26:20.438Z,7.93
2023-02-03T12:29:37.007Z,8.05
2023-02-03T12:32:59.648Z,6.18
2023-02-03T12:36:21.410Z,8.45
2023-02-03T12:39:33.744Z,10.55
2023-02-03T12:42:56.111Z,7.12
2023-02-03T12:46:07.730Z,11.07
2023-02-03T12:49:44.772Z,6.03
2023-02-03T12:53:02.057Z,8.13
2023-02-03T12:56:11.963Z,8.88
2023-02-03T12:59:23.282Z,10.90
2023-02-03T13:02:30.752Z,9.77
2023-02-03T13:05:37.382Z,8.70
2023-02-03T13:09:14.077Z,10.63
2023-02-03T13:12:28.970Z,12.05
2023-02-03T13:15:37.846Z,7.90
2023-02-03T13:18:44.424Z,13.15
2023-02-03T13:21:50.505Z,8.90
2023-02-03T13:25:02.097Z,8.10
2023-02-03T13:28:29.040Z,7.72
2023-02-03T13:31:34.460Z,9.18
2023-02-03T13:34:46.329Z,11.45
2023-02-03T13:38:16.162Z,10.25
2023-02-03T13:41:42.781Z,10.00
2023-02-03T13:44:51.516Z,10.48
2023-02-03T13:47:59.569Z,14.38
2023-02-03T13:51:26.121Z,11.82
2023-02-03T13:54:34.068Z,11.57
2023-02-03T13:57:38.736Z,12.80
2023-02-03T14:00:43.915Z,10.95
2023-02-03T14:03:47.654Z,12.10
2023-02-03T14:06:49.731Z,14.50
2023-02-03T14:10:20.160Z,12.85
2023-02-03T14:13:22.747Z,11.48
2023-02-03T14:16:25.864Z,13.68
2023-02-03T14:19:27.967Z,14.65
2023-02-03T14:22:31.572Z,13.45
2023-02-03T14:25:46.713Z,13.35
2023-02-03T14:28:52.125Z,12.18
2023-02-03T14:32:01.763Z,15.75
2023-02-03T14:35:17.143Z,17.42
2023-02-03T14:38:19.328Z,14.52
2023-02-03T14:41:45.135Z,15.82
2023-02-03T14:44:59.295Z,15.55
2023-02-03T14:48:10.597Z,17.80
2023-02-03T14:51:38.115Z,13.90
2023-02-03T14:54:52.391Z,15.38
2023-02-03T14:58:02.794Z,17.65
2023-02-03T15:01:07.252Z,14.55
2023-02-03T15:04:12.420Z,15.23
2023-02-03T15:07:34.864Z,15.75
2023-02-03T15:10:40.012Z,16.50
2023-02-03T15:13:42.476Z,14.80
2023-02-03T15:16:45.181Z,19.15
2023-02-03T15:19:47.593Z,14.00
2023-02-03T15:22:49.748Z,15.15
2023-02-03T15:26:11.017Z,13.60
2023-02-03T15:29:24.725Z,14.48
2023-02-03T15:32:41.351Z,16.23
2023-02-03T15:35:47.806Z,12.32
2023-02-03T15:38:58.467Z,16.40
2023-02-03T15:42:02.146Z,13.13
2023-02-03T15:45:04.563Z,14.90
2023-02-03T15:48:17.711Z,13.45
2023-02-03T15:51:36.183Z,10.98
2023-02-03T15:54:43.210Z,15.02
2023-02-03T15:57:49.090Z,11.98
2023-02-03T16:00:55.646Z,11.82
2023-02-03T16:03:59.195Z,12.45
2023-02-03T16:07:01.504Z,9.25
2023-02-03T16:10:04.304Z,11.70
2023-02-03T16:13:24.887Z,8.50
2023-02-03T16:16:38.343Z,9.70
2023-02-03T16:19:43.723Z,10.13
2023-02-03T16:23:04.847Z,10.35
2023-02-03T16:26:18.612Z,6.18
2023-02-03T16:29:39.756Z,6.18
2023-02-03T16:33:00.568Z,6.80
2023-02-03T16:36:30.533Z,3.10
2023-02-03T16:39:51.379Z,3.25
2023-02-03T16:43:12.355Z,6.45
2023-02-03T16:46:33.318Z,5.05
2023-02-03T16:49:54.082Z,5.62
2023-02-03T16:52:56.210Z,7.07
2023-02-03T16:56:01.355Z,5.60
2023-02-03T16:59:03.529Z,5.87
2023-02-03T17:02:06.008Z,4.12
2023-02-03T17:05:08.202Z,5.00
2023-02-03T17:08:10.755Z,4.60
2023-02-03T17:11:19.515Z,6.57
2023-02-03T17:14:22.073Z,6.60
2023-02-03T17:17:24.284Z,4.65
2023-02-03T17:20:26.837Z,4.18
2023-02-03T17:23:28.967Z,4.30
2023-02-03T17:26:31.556Z,6.78
2023-02-03T17:29:33.723Z,6.87
2023-02-03T17:32:36.173Z,7.25
2023-02-03T17:35:43.236Z,5.95
2023-02-03T17:55:41.962Z,7.32
2023-02-03T17:58:45.260Z,6.30
2023-02-03T18:01:47.596Z,8.48
2023-02-03T18:04:50.079Z,6.15
2023-02-03T18:07:52.300Z,6.93
2023-02-03T18:10:55.303Z,7.45
2023-02-03T18:13:57.753Z,6.67
2023-02-03T18:17:00.423Z,5.63
2023-02-03T18:20:03.925Z,6.43
2023-02-03T18:23:06.418Z,6.50
2023-02-03T18:26:11.119Z,10.63
2023-02-03T18:29:14.034Z,5.87
2023-02-03T18:32:16.840Z,4.43
2023-02-03T18:35:19.415Z,5.47
2023-02-03T18:38:21.579Z,6.82
2023-02-03T18:41:25.368Z,7.15
2023-02-03T18:44:27.592Z,4.97
2023-02-03T18:47:30.245Z,5.47
2023-02-03T18:50:32.749Z,6.70
2023-02-03T18:53:36.047Z,4.37
2023-02-03T18:56:38.397Z,5.93
2023-02-03T18:59:41.254Z,5.30
2023-02-03T19:02:43.410Z,6.20
2023-02-03T19:05:45.967Z,7.10
2023-02-03T19:08:48.897Z,7.57
2023-02-03T19:11:51.599Z,4.93
2023-02-03T19:14:53.916Z,5.95
2023-02-03T19:17:56.377Z,4.72
2023-02-03T19:20:58.608Z,6.45
2023-02-03T19:24:01.325Z,4.87
2023-02-03T19:27:03.635Z,5.18
2023-02-03T19:30:06.364Z,1.90
2023-02-03T19:33:08.479Z,1.77
2023-02-03T19:36:11.814Z,3.22
2023-02-03T19:39:14.765Z,1.73
2023-02-03T19:42:18.043Z,2.62
2023-02-03T19:45:20.305Z,5.15
2023-02-03T19:48:22.744Z,0.73
2023-02-03T19:51:24.918Z,0.82
2023-02-03T19:54:27.379Z,1.52
2023-02-03T19:57:29.714Z,1.70
2023-02-03T20:00:32.174Z,2.10
2023-02-03T20:03:34.819Z,1.27
2023-02-03T20:06:37.066Z,0.60
2023-02-03T20:09:39.902Z,1.55
2023-02-03T20:12:42.020Z,2.03
2023-02-03T20:15:47.461Z,1.42
2023-02-03T20:18:49.841Z,2.97
2023-02-03T20:21:52.339Z,4.55
2023-02-03T20:24:54.673Z,2.42
2023-02-03T20:27:58.215Z,1.98
2023-02-03T20:31:02.221Z,1.90
2023-02-03T20:34:04.803Z,2.95
2023-02-03T20:37:07.992Z,2.62
2023-02-03T20:40:16.122Z,2.22
2023-02-03T20:43:23.729Z,1.90
2023-02-03T20:46:26.233Z,1.62
2023-02-03T20:49:28.530Z,2.03
2023-02-03T20:52:31.028Z,1.65
2023-02-03T20:55:36.283Z,1.58
2023-02-03T20:58:40.857Z,2.90
2023-02-03T21:01:43.586Z,0.80
2023-02-03T21:04:57.922Z,1.95
2023-02-03T21:08:00.160Z,5.15
2023-02-03T21:11:09.404Z,5.25
2023-02-03T21:14:24.001Z,2.35
2023-02-03T21:17:27.331Z,4.62
2023-02-03T21:20:32.098Z,2.65
2023-02-03T21:23:42.733Z,3.87
2023-02-03T21:26:45.234Z,2.28
2023-02-03T21:29:47.777Z,4.70
2023-02-03T21:32:49.952Z,3.22
2023-02-03T21:35:52.413Z,3.67
2023-02-03T21:38:57.231Z,5.62
2023-02-03T21:42:40.936Z,3.83
2023-02-03T21:45:43.807Z,5.80
2023-02-03T21:48:50.645Z,6.47
2023-02-03T21:51:53.288Z,3.92
2023-02-03T21:54:55.758Z,10.55
2023-02-03T21:57:57.906Z,4.70
2023-02-03T22:01:03.647Z,8.23
2023-02-03T22:04:06.604Z,3.28
2023-02-03T22:07:14.876Z,3.67
2023-02-03T22:10:17.469Z,5.30
2023-02-03T22:13:20.185Z,8.73
2023-02-03T22:16:23.086Z,6.25
2023-02-03T22:19:25.634Z,4.50
2023-02-03T22:22:28.785Z,7.10
2023-02-03T22:25:31.016Z,6.70
2023-02-03T22:28:33.660Z,8.57
2023-02-03T22:31:35.866Z,5.37
2023-02-03T22:34:38.379Z,7.40
2023-02-03T22:37:40.565Z,4.03
2023-02-03T22:40:43.183Z,5.55
2023-02-03T22:43:45.463Z,2.40
2023-02-03T22:46:47.891Z,4.25
2023-02-03T22:49:50.499Z,4.35
2023-02-03T22:52:54.265Z,7.53
2023-02-03T22:55:56.424Z,6.30
2023-02-03T22:58:58.939Z,6.45
2023-02-03T23:02:01.170Z,8.75
2023-02-03T23:05:04.013Z,7.60
2023-02-03T23:08:06.205Z,8.25
2023-02-03T23:11:08.636Z,5.10
2023-02-03T23:14:11.335Z,4.78
2023-02-03T23:17:13.748Z,12.73
2023-02-03T23:20:17.067Z,5.53
2023-02-03T23:26:21.547Z,5.97
2023-02-03T23:29:24.036Z,4.60
2023-02-03T23:32:26.227Z,6.68
2023-02-03T23:35:46.816Z,5.12
2023-02-03T23:38:48.947Z,3.62
2023-02-03T23:41:51.374Z,4.32
2023-02-03T23:44:53.490Z,6.80
2023-02-03T23:47:56.025Z,7.82
2023-02-03T23:50:58.190Z,6.15
2023-02-03T23:54:00.676Z,6.47
2023-02-03T23:57:04.762Z,3.22
